sensor_id;sensor_type;location;lat;lon;timestamp;pressure;altitude;pressure_sealevel;temperature
55038;BMP280;40937;53.594;10.034;2024-01-27T00:00:32;102871.53;;;6.09
55038;BMP280;40937;53.594;10.034;2024-01-27T00:03:00;102867.78;;;6.12
55038;BMP280;40937;53.594;10.034;2024-01-27T00:05:28;102870.13;;;6.15
55038;BMP280;40937;53.594;10.034;2024-01-27T00:07:55;102875.50;;;6.14
55038;BMP280;40937;53.594;10.034;2024-01-27T00:10:22;102867.78;;;6.12
55038;BMP280;40937;53.594;10.034;2024-01-27T00:12:51;102877.72;;;6.18
55038;BMP280;40937;53.594;10.034;2024-01-27T00:15:18;102868.47;;;6.14
55038;BMP280;40937;53.594;10.034;2024-01-27T00:17:45;102865.84;;;6.14
55038;BMP280;40937;53.594;10.034;2024-01-27T00:20:13;102868.59;;;6.13
55038;BMP280;40937;53.594;10.034;2024-01-27T00:22:40;102870.03;;;6.07
55038;BMP280;40937;53.594;10.034;2024-01-27T00:25:07;102872.66;;;6.07
55038;BMP280;40937;53.594;10.034;2024-01-27T00:27:35;102876.41;;;6.04
55038;BMP280;40937;53.594;10.034;2024-01-27T00:30:05;102879.53;;;6.08
55038;BMP280;40937;53.594;10.034;2024-01-27T00:32:33;102884.13;;;6.06
55038;BMP280;40937;53.594;10.034;2024-01-27T00:35:00;102882.66;;;6.12
55038;BMP280;40937;53.594;10.034;2024-01-27T00:37:28;102891.75;;;6.17
55038;BMP280;40937;53.594;10.034;2024-01-27T00:39:56;102883.81;;;6.09
55038;BMP280;40937;53.594;10.034;2024-01-27T00:42:23;102887.91;;;6.12
55038;BMP280;40937;53.594;10.034;2024-01-27T00:44:50;102886.81;;;6.14
55038;BMP280;40937;53.594;10.034;2024-01-27T00:47:19;102893.00;;;6.13
55038;BMP280;40937;53.594;10.034;2024-01-27T00:49:46;102892.06;;;6.14
55038;BMP280;40937;53.594;10.034;2024-01-27T00:52:15;102896.47;;;6.14
55038;BMP280;40937;53.594;10.034;2024-01-27T00:54:42;102900.31;;;6.19
55038;BMP280;40937;53.594;10.034;2024-01-27T00:57:09;102899.34;;;6.20
55038;BMP280;40937;53.594;10.034;2024-01-27T00:59:37;102898.38;;;6.21
55038;BMP280;40937;53.594;10.034;2024-01-27T01:02:04;102904.13;;;6.25
55038;BMP280;40937;53.594;10.034;2024-01-27T01:04:33;102908.31;;;6.18
55038;BMP280;40937;53.594;10.034;2024-01-27T01:07:00;102902.50;;;6.24
55038;BMP280;40937;53.594;10.034;2024-01-27T01:09:28;102915.28;;;6.27
55038;BMP280;40937;53.594;10.034;2024-01-27T01:11:55;102910.50;;;6.22
55038;BMP280;40937;53.594;10.034;2024-01-27T01:14:22;102909.84;;;6.20
55038;BMP280;40937;53.594;10.034;2024-01-27T01:16:49;102918.75;;;6.27
55038;BMP280;40937;53.594;10.034;2024-01-27T01:19:17;102912.97;;;6.24
55038;BMP280;40937;53.594;10.034;2024-01-27T01:21:45;102923.41;;;6.34
55038;BMP280;40937;53.594;10.034;2024-01-27T01:24:12;102920.53;;;6.27
55038;BMP280;40937;53.594;10.034;2024-01-27T01:26:40;102923.41;;;6.34
55038;BMP280;40937;53.594;10.034;2024-01-27T01:29:07;102918.91;;;6.26
55038;BMP280;40937;53.594;10.034;2024-01-27T01:31:34;102917.69;;;6.20
55038;BMP280;40937;53.594;10.034;2024-01-27T01:34:01;102939.47;;;6.21
55038;BMP280;40937;53.594;10.034;2024-01-27T01:36:28;102934.38;;;6.19
55038;BMP280;40937;53.594;10.034;2024-01-27T01:38:57;102945.28;;;6.24
55038;BMP280;40937;53.594;10.034;2024-01-27T01:41:24;102943.91;;;6.20
55038;BMP280;40937;53.594;10.034;2024-01-27T01:43:51;102949.44;;;6.17
55038;BMP280;40937;53.594;10.034;2024-01-27T01:46:18;102953.78;;;6.26
55038;BMP280;40937;53.594;10.034;2024-01-27T01:48:46;102969.91;;;6.32
55038;BMP280;40937;53.594;10.034;2024-01-27T01:51:13;102973.59;;;6.39
55038;BMP280;40937;53.594;10.034;2024-01-27T01:53:41;102978.56;;;6.42
55038;BMP280;40937;53.594;10.034;2024-01-27T01:56:10;102983.81;;;6.42
55038;BMP280;40937;53.594;10.034;2024-01-27T01:58:37;102990.41;;;6.46
55038;BMP280;40937;53.594;10.034;2024-01-27T02:01:04;102997.06;;;6.40
55038;BMP280;40937;53.594;10.034;2024-01-27T02:03:31;102998.19;;;6.38
55038;BMP280;40937;53.594;10.034;2024-01-27T02:05:58;102983.94;;;6.40
55038;BMP280;40937;53.594;10.034;2024-01-27T02:08:25;103003.13;;;6.41
55038;BMP280;40937;53.594;10.034;2024-01-27T02:10:53;102994.31;;;6.32
55038;BMP280;40937;53.594;10.034;2024-01-27T02:13:22;102997.50;;;6.36
55038;BMP280;40937;53.594;10.034;2024-01-27T02:15:51;103000.41;;;6.33
55038;BMP280;40937;53.594;10.034;2024-01-27T02:18:18;103007.63;;;6.31
55038;BMP280;40937;53.594;10.034;2024-01-27T02:20:46;103003.03;;;6.33
55038;BMP280;40937;53.594;10.034;2024-01-27T02:23:13;103004.53;;;6.35
55038;BMP280;40937;53.594;10.034;2024-01-27T02:25:42;103008.69;;;6.38
55038;BMP280;40937;53.594;10.034;2024-01-27T02:28:09;103012.50;;;6.43
55038;BMP280;40937;53.594;10.034;2024-01-27T02:30:38;102997.06;;;6.40
55038;BMP280;40937;53.594;10.034;2024-01-27T02:33:05;103014.72;;;6.48
55038;BMP280;40937;53.594;10.034;2024-01-27T02:35:32;103015.28;;;6.42
55038;BMP280;40937;53.594;10.034;2024-01-27T02:38:00;103008.34;;;6.51
55038;BMP280;40937;53.594;10.034;2024-01-27T02:40:27;103010.44;;;6.47
55038;BMP280;40937;53.594;10.034;2024-01-27T02:42:55;103016.91;;;6.43
55038;BMP280;40937;53.594;10.034;2024-01-27T02:45:23;103019.16;;;6.38
55038;BMP280;40937;53.594;10.034;2024-01-27T02:47:50;103024.97;;;6.32
55038;BMP280;40937;53.594;10.034;2024-01-27T02:50:17;103025.78;;;6.32
55038;BMP280;40937;53.594;10.034;2024-01-27T02:52:45;103018.56;;;6.44
55038;BMP280;40937;53.594;10.034;2024-01-27T02:55:12;103029.31;;;6.51
55038;BMP280;40937;53.594;10.034;2024-01-27T02:57:40;103034.31;;;6.44
55038;BMP280;40937;53.594;10.034;2024-01-27T03:00:10;103036.53;;;6.39
55038;BMP280;40937;53.594;10.034;2024-01-27T03:02:37;103037.88;;;6.43
55038;BMP280;40937;53.594;10.034;2024-01-27T03:05:05;103032.66;;;6.53
55038;BMP280;40937;53.594;10.034;2024-01-27T03:07:34;103029.59;;;6.47
55038;BMP280;40937;53.594;10.034;2024-01-27T03:10:01;103034.41;;;6.52
55038;BMP280;40937;53.594;10.034;2024-01-27T03:12:28;103035.72;;;6.38
55038;BMP280;40937;53.594;10.034;2024-01-27T03:14:56;103041.50;;;6.42
55038;BMP280;40937;53.594;10.034;2024-01-27T03:17:24;103030.72;;;6.45
55038;BMP280;40937;53.594;10.034;2024-01-27T03:19:51;103044.91;;;6.52
55038;BMP280;40937;53.594;10.034;2024-01-27T03:22:19;103054.22;;;6.37
55038;BMP280;40937;53.594;10.034;2024-01-27T03:24:46;103044.13;;;6.42
55038;BMP280;40937;53.594;10.034;2024-01-27T03:27:13;103065.25;;;6.40
55038;BMP280;40937;53.594;10.034;2024-01-27T03:29:40;103058.63;;;6.36
55038;BMP280;40937;53.594;10.034;2024-01-27T03:32:07;103059.59;;;6.35
55038;BMP280;40937;53.594;10.034;2024-01-27T03:34:36;103058.50;;;6.38
55038;BMP280;40937;53.594;10.034;2024-01-27T03:37:03;103059.59;;;6.35
55038;BMP280;40937;53.594;10.034;2024-01-27T03:39:30;103050.09;;;6.34
55038;BMP280;40937;53.594;10.034;2024-01-27T03:41:57;103058.09;;;6.33
55038;BMP280;40937;53.594;10.034;2024-01-27T03:44:24;103071.59;;;6.38
55038;BMP280;40937;53.594;10.034;2024-01-27T03:46:52;103064.13;;;6.43
55038;BMP280;40937;53.594;10.034;2024-01-27T03:49:19;103065.50;;;6.47
55038;BMP280;40937;53.594;10.034;2024-01-27T03:51:47;103067.38;;;6.55
55038;BMP280;40937;53.594;10.034;2024-01-27T03:54:14;103073.38;;;6.47
55038;BMP280;40937;53.594;10.034;2024-01-27T03:56:42;103078.50;;;6.39
55038;BMP280;40937;53.594;10.034;2024-01-27T03:59:09;103075.88;;;6.39
55038;BMP280;40937;53.594;10.034;2024-01-27T04:01:37;103085.38;;;6.40
55038;BMP280;40937;53.594;10.034;2024-01-27T04:04:04;103090.75;;;6.48
55038;BMP280;40937;53.594;10.034;2024-01-27T04:06:36;103094.56;;;6.54
55038;BMP280;40937;53.594;10.034;2024-01-27T04:09:04;103091.72;;;6.47
55038;BMP280;40937;53.594;10.034;2024-01-27T04:11:34;103089.25;;;6.45
55038;BMP280;40937;53.594;10.034;2024-01-27T04:14:03;103090.47;;;6.51
55038;BMP280;40937;53.594;10.034;2024-01-27T04:16:30;103096.72;;;6.40
55038;BMP280;40937;53.594;10.034;2024-01-27T04:18:57;103086.75;;;6.44
55038;BMP280;40937;53.594;10.034;2024-01-27T04:21:25;103088.56;;;6.34
55038;BMP280;40937;53.594;10.034;2024-01-27T04:23:52;103090.97;;;6.17
55038;BMP280;40937;53.594;10.034;2024-01-27T04:26:20;103099.25;;;6.13
55038;BMP280;40937;53.594;10.034;2024-01-27T04:28:47;103099.53;;;6.19
55038;BMP280;40937;53.594;10.034;2024-01-27T04:31:15;103102.31;;;6.08
55038;BMP280;40937;53.594;10.034;2024-01-27T04:33:42;103105.31;;;6.13
55038;BMP280;40937;53.594;10.034;2024-01-27T04:36:09;103101.19;;;6.20
55038;BMP280;40937;53.594;10.034;2024-01-27T04:38:37;103103.34;;;6.25
55038;BMP280;40937;53.594;10.034;2024-01-27T04:41:04;103114.38;;;6.28
55038;BMP280;40937;53.594;10.034;2024-01-27T04:43:32;103121.25;;;6.39
55038;BMP280;40937;53.594;10.034;2024-01-27T04:45:59;103118.00;;;6.37
55038;BMP280;40937;53.594;10.034;2024-01-27T04:48:27;103122.66;;;6.34
55038;BMP280;40937;53.594;10.034;2024-01-27T04:50:54;103126.38;;;6.41
55038;BMP280;40937;53.594;10.034;2024-01-27T04:53:22;103127.19;;;6.41
55038;BMP280;40937;53.594;10.034;2024-01-27T04:55:49;103119.91;;;6.45
55038;BMP280;40937;53.594;10.034;2024-01-27T04:58:16;103116.56;;;6.43
55038;BMP280;40937;53.594;10.034;2024-01-27T05:00:45;103111.31;;;6.43
55038;BMP280;40937;53.594;10.034;2024-01-27T05:03:12;103106.91;;;6.43
55038;BMP280;40937;53.594;10.034;2024-01-27T05:05:41;103115.19;;;6.39
55038;BMP280;40937;53.594;10.034;2024-01-27T05:08:08;103112.88;;;6.36
55038;BMP280;40937;53.594;10.034;2024-01-27T05:10:36;103122.38;;;6.37
55038;BMP280;40937;53.594;10.034;2024-01-27T05:13:03;103111.91;;;6.37
55038;BMP280;40937;53.594;10.034;2024-01-27T05:15:30;103121.56;;;6.36
55038;BMP280;40937;53.594;10.034;2024-01-27T05:17:59;103118.81;;;6.28
55038;BMP280;40937;53.594;10.034;2024-01-27T05:20:26;103123.50;;;6.34
55038;BMP280;40937;53.594;10.034;2024-01-27T05:22:54;103122.13;;;6.30
55038;BMP280;40937;53.594;10.034;2024-01-27T05:25:21;103122.13;;;6.30
55038;BMP280;40937;53.594;10.034;2024-01-27T05:27:48;103116.63;;;6.14
55038;BMP280;40937;53.594;10.034;2024-01-27T05:30:16;103122.69;;;6.14
55038;BMP280;40937;53.594;10.034;2024-01-27T05:32:44;103127.97;;;6.04
55038;BMP280;40937;53.594;10.034;2024-01-27T05:35:13;103123.00;;;5.92
55038;BMP280;40937;53.594;10.034;2024-01-27T05:37:40;103134.88;;;5.96
55038;BMP280;40937;53.594;10.034;2024-01-27T05:40:08;103137.75;;;5.93
55038;BMP280;40937;53.594;10.034;2024-01-27T05:42:36;103147.28;;;5.94
55038;BMP280;40937;53.594;10.034;2024-01-27T05:45:04;103147.81;;;5.97
55038;BMP280;40937;53.594;10.034;2024-01-27T05:47:31;103156.38;;;5.89
55038;BMP280;40937;53.594;10.034;2024-01-27T05:49:59;103155.81;;;5.86
55038;BMP280;40937;53.594;10.034;2024-01-27T05:52:27;103156.78;;;5.75
55038;BMP280;40937;53.594;10.034;2024-01-27T05:54:54;103157.44;;;5.67
55038;BMP280;40937;53.594;10.034;2024-01-27T05:57:22;103148.78;;;5.77
55038;BMP280;40937;53.594;10.034;2024-01-27T05:59:49;103155.25;;;5.82
55038;BMP280;40937;53.594;10.034;2024-01-27T06:02:16;103164.06;;;5.81
55038;BMP280;40937;53.594;10.034;2024-01-27T06:04:44;103160.94;;;5.87
55038;BMP280;40937;53.594;10.034;2024-01-27T06:07:11;103167.94;;;5.77
55038;BMP280;40937;53.594;10.034;2024-01-27T06:09:39;103164.78;;;5.74
55038;BMP280;40937;53.594;10.034;2024-01-27T06:12:07;103167.41;;;5.74
55038;BMP280;40937;53.594;10.034;2024-01-27T06:14:34;103173.63;;;5.92
55038;BMP280;40937;53.594;10.034;2024-01-27T06:17:02;103173.50;;;5.94
55038;BMP280;40937;53.594;10.034;2024-01-27T06:19:29;103184.78;;;5.94
55038;BMP280;40937;53.594;10.034;2024-01-27T06:21:57;103184.50;;;6.07
55038;BMP280;40937;53.594;10.034;2024-01-27T06:24:24;103193.34;;;6.06
55038;BMP280;40937;53.594;10.034;2024-01-27T06:26:52;103195.84;;;6.07
55038;BMP280;40937;53.594;10.034;2024-01-27T06:29:19;103186.84;;;6.10
55038;BMP280;40937;53.594;10.034;2024-01-27T06:31:46;103194.72;;;6.10
55038;BMP280;40937;53.594;10.034;2024-01-27T06:34:13;103189.47;;;6.00
55038;BMP280;40937;53.594;10.034;2024-01-27T06:36:40;103188.66;;;6.09
55038;BMP280;40937;53.594;10.034;2024-01-27T06:39:07;103185.63;;;6.04
55038;BMP280;40937;53.594;10.034;2024-01-27T06:41:35;103188.09;;;5.86
55038;BMP280;40937;53.594;10.034;2024-01-27T06:44:04;103199.94;;;6.00
55038;BMP280;40937;53.594;10.034;2024-01-27T06:46:31;103201.63;;;6.01
55038;BMP280;40937;53.594;10.034;2024-01-27T06:48:58;103205.03;;;6.12
55038;BMP280;40937;53.594;10.034;2024-01-27T06:51:25;103206.19;;;6.09
55038;BMP280;40937;53.594;10.034;2024-01-27T06:53:52;103218.47;;;6.18
55038;BMP280;40937;53.594;10.034;2024-01-27T06:56:20;103216.09;;;6.15
55038;BMP280;40937;53.594;10.034;2024-01-27T06:58:47;103219.13;;;6.01
55038;BMP280;40937;53.594;10.034;2024-01-27T07:01:16;103226.97;;;6.01
55038;BMP280;40937;53.594;10.034;2024-01-27T07:03:43;103226.44;;;6.07
55038;BMP280;40937;53.594;10.034;2024-01-27T07:06:10;103224.81;;;6.06
55038;BMP280;40937;53.594;10.034;2024-01-27T07:08:37;103246.56;;;5.97
55038;BMP280;40937;53.594;10.034;2024-01-27T07:11:05;103241.44;;;5.85
55038;BMP280;40937;53.594;10.034;2024-01-27T07:13:32;103238.00;;;5.75
55038;BMP280;40937;53.594;10.034;2024-01-27T07:15:59;103253.16;;;5.81
55038;BMP280;40937;53.594;10.034;2024-01-27T07:18:27;103244.31;;;5.82
55038;BMP280;40937;53.594;10.034;2024-01-27T07:20:55;103247.91;;;5.81
55038;BMP280;40937;53.594;10.034;2024-01-27T07:23:25;103250.91;;;5.67
55038;BMP280;40937;53.594;10.034;2024-01-27T07:25:52;103256.84;;;5.59
55038;BMP280;40937;53.594;10.034;2024-01-27T07:28:19;103244.56;;;5.60
55038;BMP280;40937;53.594;10.034;2024-01-27T07:30:46;103239.38;;;5.79
55038;BMP280;40937;53.594;10.034;2024-01-27T07:33:14;103257.09;;;5.66
55038;BMP280;40937;53.594;10.034;2024-01-27T07:35:42;103251.72;;;5.58
55038;BMP280;40937;53.594;10.034;2024-01-27T07:38:09;103263.31;;;5.65
55038;BMP280;40937;53.594;10.034;2024-01-27T07:40:37;103273.75;;;5.55
55038;BMP280;40937;53.594;10.034;2024-01-27T07:43:04;103277.19;;;5.56
55038;BMP280;40937;53.594;10.034;2024-01-27T07:45:31;103288.13;;;5.61
55038;BMP280;40937;53.594;10.034;2024-01-27T07:47:58;103284.72;;;5.39
55038;BMP280;40937;53.594;10.034;2024-01-27T07:50:26;103297.81;;;5.39
55038;BMP280;40937;53.594;10.034;2024-01-27T07:52:54;103296.59;;;5.43
55038;BMP280;40937;53.594;10.034;2024-01-27T07:55:21;103295.63;;;5.44
55038;BMP280;40937;53.594;10.034;2024-01-27T07:57:49;103299.00;;;5.35
55038;BMP280;40937;53.594;10.034;2024-01-27T08:00:16;103293.78;;;5.35
55038;BMP280;40937;53.594;10.034;2024-01-27T08:02:44;103296.00;;;5.30
55038;BMP280;40937;53.594;10.034;2024-01-27T08:05:11;103288.53;;;5.35
55038;BMP280;40937;53.594;10.034;2024-01-27T08:07:38;103295.13;;;5.29
55038;BMP280;40937;53.594;10.034;2024-01-27T08:10:07;103282.78;;;5.31
55038;BMP280;40937;53.594;10.034;2024-01-27T08:12:38;103294.31;;;5.29
55038;BMP280;40937;53.594;10.034;2024-01-27T08:15:06;103289.84;;;5.41
55038;BMP280;40937;53.594;10.034;2024-01-27T08:17:33;103297.44;;;5.23
55038;BMP280;40937;53.594;10.034;2024-01-27T08:20:01;103302.16;;;5.29
55038;BMP280;40937;53.594;10.034;2024-01-27T08:22:39;103307.91;;;5.44
55038;BMP280;40937;53.594;10.034;2024-01-27T08:25:09;103305.88;;;5.57
55038;BMP280;40937;53.594;10.034;2024-01-27T08:27:43;103309.34;;;5.58
55038;BMP280;40937;53.594;10.034;2024-01-27T08:30:12;103306.84;;;5.56
55038;BMP280;40937;53.594;10.034;2024-01-27T08:32:39;103310.03;;;5.60
55038;BMP280;40937;53.594;10.034;2024-01-27T08:35:08;103297.38;;;5.65
55038;BMP280;40937;53.594;10.034;2024-01-27T08:37:36;103306.47;;;5.61
55038;BMP280;40937;53.594;10.034;2024-01-27T08:40:06;103290.03;;;5.59
55038;BMP280;40937;53.594;10.034;2024-01-27T08:42:36;103308.72;;;5.44
55038;BMP280;40937;53.594;10.034;2024-01-27T08:45:06;103315.97;;;5.62
55038;BMP280;40937;53.594;10.034;2024-01-27T08:47:36;103321.19;;;5.62
55038;BMP280;40937;53.594;10.034;2024-01-27T08:50:08;103326.03;;;5.66
55038;BMP280;40937;53.594;10.034;2024-01-27T08:52:36;103329.06;;;5.62
55038;BMP280;40937;53.594;10.034;2024-01-27T08:55:04;103326.50;;;5.71
55038;BMP280;40937;53.594;10.034;2024-01-27T08:57:32;103336.25;;;5.69
55038;BMP280;40937;53.594;10.034;2024-01-27T09:00:00;103345.22;;;5.67
55038;BMP280;40937;53.594;10.034;2024-01-27T09:02:29;103346.72;;;5.69
55038;BMP280;40937;53.594;10.034;2024-01-27T09:04:59;103339.84;;;5.68
55038;BMP280;40937;53.594;10.034;2024-01-27T09:07:29;103342.66;;;5.77
55038;BMP280;40937;53.594;10.034;2024-01-27T09:09:58;103343.81;;;5.63
55038;BMP280;40937;53.594;10.034;2024-01-27T09:12:25;103333.72;;;5.48
55038;BMP280;40937;53.594;10.034;2024-01-27T09:14:54;103347.66;;;5.59
55038;BMP280;40937;53.594;10.034;2024-01-27T09:17:35;103339.59;;;5.50
55038;BMP280;40937;53.594;10.034;2024-01-27T09:20:07;103346.00;;;5.58
55038;BMP280;40937;53.594;10.034;2024-01-27T09:22:40;103342.16;;;5.62
55038;BMP280;40937;53.594;10.034;2024-01-27T09:25:08;103341.22;;;5.63
55038;BMP280;40937;53.594;10.034;2024-01-27T09:27:36;103341.34;;;5.71
55038;BMP280;40937;53.594;10.034;2024-01-27T09:30:04;103348.63;;;5.58
55038;BMP280;40937;53.594;10.034;2024-01-27T09:32:35;103345.50;;;5.64
55038;BMP280;40937;53.594;10.034;2024-01-27T09:35:05;103357.94;;;5.71
55038;BMP280;40937;53.594;10.034;2024-01-27T09:37:35;103346.59;;;5.71
55038;BMP280;40937;53.594;10.034;2024-01-27T09:40:03;103356.91;;;5.63
55038;BMP280;40937;53.594;10.034;2024-01-27T09:42:33;103352.50;;;5.63
55038;BMP280;40937;53.594;10.034;2024-01-27T09:45:01;103357.06;;;5.71
55038;BMP280;40937;53.594;10.034;2024-01-27T09:47:29;103357.63;;;5.65
55038;BMP280;40937;53.594;10.034;2024-01-27T09:49:58;103352.09;;;5.68
55038;BMP280;40937;53.594;10.034;2024-01-27T09:52:26;103365.06;;;5.69
55038;BMP280;40937;53.594;10.034;2024-01-27T09:54:55;103365.41;;;5.76
55038;BMP280;40937;53.594;10.034;2024-01-27T09:57:25;103355.75;;;5.86
55038;BMP280;40937;53.594;10.034;2024-01-27T09:59:53;103358.69;;;5.93
55038;BMP280;40937;53.594;10.034;2024-01-27T10:02:24;103365.97;;;5.89
55038;BMP280;40937;53.594;10.034;2024-01-27T10:04:51;103353.03;;;5.98
55038;BMP280;40937;53.594;10.034;2024-01-27T10:07:20;103358.00;;;6.01
55038;BMP280;40937;53.594;10.034;2024-01-27T10:09:48;103368.22;;;6.04
55038;BMP280;40937;53.594;10.034;2024-01-27T10:12:16;103363.25;;;6.01
55038;BMP280;40937;53.594;10.034;2024-01-27T10:14:44;103367.41;;;5.94
55038;BMP280;40937;53.594;10.034;2024-01-27T10:17:20;103375.41;;;6.02
55038;BMP280;40937;53.594;10.034;2024-01-27T10:19:59;103374.59;;;6.11
55038;BMP280;40937;53.594;10.034;2024-01-27T10:22:27;103372.66;;;6.13
55038;BMP280;40937;53.594;10.034;2024-01-27T10:24:54;103366.22;;;6.17
55038;BMP280;40937;53.594;10.034;2024-01-27T10:27:22;103373.94;;;6.28
55038;BMP280;40937;53.594;10.034;2024-01-27T10:29:53;103361.41;;;6.22
55038;BMP280;40937;53.594;10.034;2024-01-27T10:32:20;103370.13;;;6.33
55038;BMP280;40937;53.594;10.034;2024-01-27T10:34:49;103376.91;;;6.45
55038;BMP280;40937;53.594;10.034;2024-01-27T10:37:24;103379.78;;;6.42
55038;BMP280;40937;53.594;10.034;2024-01-27T10:40:01;103369.84;;;6.45
55038;BMP280;40937;53.594;10.034;2024-01-27T10:42:32;103374.13;;;6.37
55038;BMP280;40937;53.594;10.034;2024-01-27T10:45:03;103372.75;;;6.33
55038;BMP280;40937;53.594;10.034;2024-01-27T10:47:32;103377.03;;;6.43
55038;BMP280;40937;53.594;10.034;2024-01-27T10:50:00;103376.63;;;6.48
55038;BMP280;40937;53.594;10.034;2024-01-27T10:52:30;103374.41;;;6.53
55038;BMP280;40937;53.594;10.034;2024-01-27T10:55:03;103369.44;;;6.50
55038;BMP280;40937;53.594;10.034;2024-01-27T10:57:37;103366.41;;;6.64
55038;BMP280;40937;53.594;10.034;2024-01-27T11:00:08;103367.09;;;6.66
55038;BMP280;40937;53.594;10.034;2024-01-27T11:02:36;103372.91;;;6.70
55038;BMP280;40937;53.594;10.034;2024-01-27T11:05:05;103373.59;;;6.62
55038;BMP280;40937;53.594;10.034;2024-01-27T11:07:35;103361.44;;;6.71
55038;BMP280;40937;53.594;10.034;2024-01-27T11:10:04;103356.50;;;6.78
55038;BMP280;40937;53.594;10.034;2024-01-27T11:12:34;103368.91;;;6.85
55038;BMP280;40937;53.594;10.034;2024-01-27T11:15:02;103364.31;;;6.97
55038;BMP280;40937;53.594;10.034;2024-01-27T11:17:38;103360.19;;;7.04
55038;BMP280;40937;53.594;10.034;2024-01-27T11:20:08;103368.72;;;7.07
55038;BMP280;40937;53.594;10.034;2024-01-27T11:22:35;103377.44;;;7.17
55038;BMP280;40937;53.594;10.034;2024-01-27T11:25:15;103374.25;;;7.23
55038;BMP280;40937;53.594;10.034;2024-01-27T11:27:44;103371.06;;;7.29
55038;BMP280;40937;53.594;10.034;2024-01-27T11:30:25;103372.41;;;7.33
55038;BMP280;40937;53.594;10.034;2024-01-27T11:32:54;103382.03;;;7.42
55038;BMP280;40937;53.594;10.034;2024-01-27T11:35:24;103377.91;;;7.50
55038;BMP280;40937;53.594;10.034;2024-01-27T11:37:55;103386.19;;;7.45
55038;BMP280;40937;53.594;10.034;2024-01-27T11:40:23;103389.50;;;7.47
55038;BMP280;40937;53.594;10.034;2024-01-27T11:42:54;103390.44;;;7.56
55038;BMP280;40937;53.594;10.034;2024-01-27T11:45:22;103392.78;;;7.59
55038;BMP280;40937;53.594;10.034;2024-01-27T11:47:50;103386.81;;;7.67
55038;BMP280;40937;53.594;10.034;2024-01-27T11:50:18;103394.00;;;7.74
55038;BMP280;40937;53.594;10.034;2024-01-27T11:52:47;103400.47;;;7.80
55038;BMP280;40937;53.594;10.034;2024-01-27T11:55:16;103393.47;;;7.89
55038;BMP280;40937;53.594;10.034;2024-01-27T11:57:46;103387.81;;;7.93
55038;BMP280;40937;53.594;10.034;2024-01-27T12:00:17;103396.34;;;8.05
55038;BMP280;40937;53.594;10.034;2024-01-27T12:02:50;103395.63;;;8.03
55038;BMP280;40937;53.594;10.034;2024-01-27T12:05:19;103396.34;;;8.05
55038;BMP280;40937;53.594;10.034;2024-01-27T12:07:58;103409.94;;;8.18
55038;BMP280;40937;53.594;10.034;2024-01-27T12:10:26;103408.25;;;8.27
55038;BMP280;40937;53.594;10.034;2024-01-27T12:12:55;103400.66;;;8.42
55038;BMP280;40937;53.594;10.034;2024-01-27T12:15:25;103412.47;;;8.38
55038;BMP280;40937;53.594;10.034;2024-01-27T12:17:53;103426.97;;;8.42
55038;BMP280;40937;53.594;10.034;2024-01-27T12:20:22;103426.66;;;8.45
55038;BMP280;40937;53.594;10.034;2024-01-27T12:22:50;103417.72;;;8.56
55038;BMP280;40937;53.594;10.034;2024-01-27T12:25:20;103432.09;;;8.62
55038;BMP280;40937;53.594;10.034;2024-01-27T12:27:48;103419.53;;;8.73
55038;BMP280;40937;53.594;10.034;2024-01-27T12:30:18;103422.97;;;8.74
55038;BMP280;40937;53.594;10.034;2024-01-27T12:32:45;103414.34;;;8.82
55038;BMP280;40937;53.594;10.034;2024-01-27T12:35:15;103414.41;;;8.90
55038;BMP280;40937;53.594;10.034;2024-01-27T12:37:46;103407.66;;;8.87
55038;BMP280;40937;53.594;10.034;2024-01-27T12:40:17;103408.03;;;8.92
55038;BMP280;40937;53.594;10.034;2024-01-27T12:42:45;103397.16;;;8.95
55038;BMP280;40937;53.594;10.034;2024-01-27T12:45:12;103399.78;;;8.95
55038;BMP280;40937;53.594;10.034;2024-01-27T12:47:41;103396.41;;;8.85
55038;BMP280;40937;53.594;10.034;2024-01-27T12:50:09;103397.16;;;8.95
55038;BMP280;40937;53.594;10.034;2024-01-27T12:52:36;103399.13;;;8.93
55038;BMP280;40937;53.594;10.034;2024-01-27T12:55:04;103399.34;;;9.00
55038;BMP280;40937;53.594;10.034;2024-01-27T12:57:32;103395.50;;;8.94
55038;BMP280;40937;53.594;10.034;2024-01-27T13:00:05;103395.19;;;8.98
55038;BMP280;40937;53.594;10.034;2024-01-27T13:02:36;103397.53;;;9.01
55038;BMP280;40937;53.594;10.034;2024-01-27T13:05:05;103390.59;;;9.00
55038;BMP280;40937;53.594;10.034;2024-01-27T13:07:34;103398.19;;;9.03
55038;BMP280;40937;53.594;10.034;2024-01-27T13:10:03;103400.16;;;9.01
55038;BMP280;40937;53.594;10.034;2024-01-27T13:12:31;103396.22;;;9.05
55038;BMP280;40937;53.594;10.034;2024-01-27T13:14:59;103392.94;;;9.03
55038;BMP280;40937;53.594;10.034;2024-01-27T13:17:30;103395.19;;;8.98
55038;BMP280;40937;53.594;10.034;2024-01-27T13:19:58;103395.50;;;8.94
55038;BMP280;40937;53.594;10.034;2024-01-27T13:22:27;103396.41;;;8.85
55038;BMP280;40937;53.594;10.034;2024-01-27T13:24:54;103397.03;;;8.79
55038;BMP280;40937;53.594;10.034;2024-01-27T13:27:27;103404.69;;;8.54
55038;BMP280;40937;53.594;10.034;2024-01-27T13:29:54;103402.97;;;8.45
55038;BMP280;40937;53.594;10.034;2024-01-27T13:32:21;103412.06;;;8.33
55038;BMP280;40937;53.594;10.034;2024-01-27T13:34:49;103403.66;;;8.47
55038;BMP280;40937;53.594;10.034;2024-01-27T13:37:16;103420.94;;;8.50
55038;BMP280;40937;53.594;10.034;2024-01-27T13:39:46;103413.34;;;8.47
55038;BMP280;40937;53.594;10.034;2024-01-27T13:42:15;103410.09;;;8.53
55038;BMP280;40937;53.594;10.034;2024-01-27T13:44:43;103400.00;;;8.58
55038;BMP280;40937;53.594;10.034;2024-01-27T13:47:15;103406.75;;;8.61
55038;BMP280;40937;53.594;10.034;2024-01-27T13:49:43;103414.94;;;8.57
55038;BMP280;40937;53.594;10.034;2024-01-27T13:52:12;103417.34;;;8.51
55038;BMP280;40937;53.594;10.034;2024-01-27T13:54:47;103424.44;;;8.50
55038;BMP280;40937;53.594;10.034;2024-01-27T13:57:17;103418.09;;;8.43
55038;BMP280;40937;53.594;10.034;2024-01-27T13:59:48;103416.13;;;8.45
55038;BMP280;40937;53.594;10.034;2024-01-27T14:02:15;103412.19;;;8.41